createdAt,value
2022-11-05T00:00:48.597Z,15.35
2022-11-05T00:03:35.818Z,16.25
2022-11-05T00:06:17.550Z,15.80
2022-11-05T00:09:02.869Z,15.38
2022-11-05T00:11:44.676Z,14.30
2022-11-05T00:14:33.543Z,16.35
2022-11-05T00:17:01.279Z,14.95
2022-11-05T00:19:31.090Z,14.18
2022-11-05T00:22:16.453Z,11.38
2022-11-05T00:25:01.801Z,11.30
2022-11-05T00:27:30.257Z,13.02
2022-11-05T00:29:59.583Z,14.32
2022-11-05T00:32:27.353Z,15.93
2022-11-05T00:34:56.127Z,14.82
2022-11-05T00:37:25.175Z,15.55
2022-11-05T00:39:52.811Z,15.48
2022-11-05T00:42:39.093Z,12.02
2022-11-05T00:45:12.761Z,12.02
2022-11-05T00:47:59.709Z,14.60
2022-11-05T00:50:29.754Z,14.98
2022-11-05T00:53:00.481Z,15.07
2022-11-05T00:55:33.765Z,12.88
2022-11-05T00:58:02.594Z,14.32
2022-11-05T01:00:33.483Z,13.45
2022-11-05T01:03:03.920Z,14.70
2022-11-05T01:05:32.795Z,13.18
2022-11-05T01:08:02.745Z,14.80
2022-11-05T01:10:31.451Z,13.30
2022-11-05T01:12:59.597Z,13.50
2022-11-05T01:15:27.823Z,12.52
2022-11-05T01:17:56.709Z,9.48
2022-11-05T01:20:25.773Z,10.90
2022-11-05T01:22:53.324Z,8.68
2022-11-05T01:25:22.765Z,9.70
2022-11-05T01:27:51.266Z,11.68
2022-11-05T01:33:12.650Z,12.20
2022-11-05T01:35:41.879Z,11.85
2022-11-05T01:38:34.839Z,12.40
2022-11-05T01:41:03.769Z,10.60
2022-11-05T01:43:47.916Z,10.68
2022-11-05T01:46:18.834Z,12.55
2022-11-05T01:49:16.515Z,12.93
2022-11-05T01:51:46.690Z,13.98
2022-11-05T01:54:19.648Z,13.90
2022-11-05T01:56:52.270Z,13.13
2022-11-05T01:59:24.791Z,15.20
2022-11-05T02:01:52.977Z,14.35
2022-11-05T02:04:28.770Z,15.75
2022-11-05T02:06:56.877Z,13.93
2022-11-05T02:09:30.157Z,13.02
2022-11-05T02:11:58.314Z,12.80
2022-11-05T02:14:29.250Z,13.02
2022-11-05T02:17:02.290Z,12.05
2022-11-05T02:20:10.437Z,12.20
2022-11-05T02:23:18.200Z,10.73
2022-11-05T02:26:35.383Z,11.95
2022-11-05T02:29:46.596Z,11.93
2022-11-05T02:32:26.293Z,12.82
2022-11-05T02:35:02.615Z,12.93
2022-11-05T02:37:40.780Z,12.93
2022-11-05T02:40:22.741Z,15.32
2022-11-05T02:43:02.195Z,10.90
2022-11-05T02:45:41.791Z,11.93
2022-11-05T02:48:22.287Z,12.25
2022-11-05T02:50:56.779Z,12.32
2022-11-05T02:53:35.157Z,13.90
2022-11-05T02:56:08.421Z,11.00
2022-11-05T02:58:39.847Z,12.02
2022-11-05T03:01:11.743Z,15.40
2022-11-05T03:03:43.789Z,12.25
2022-11-05T03:06:28.827Z,12.07
2022-11-05T03:09:11.864Z,12.30
2022-11-05T03:11:46.977Z,11.13
2022-11-05T03:14:23.756Z,13.05
2022-11-05T03:17:08.500Z,10.98
2022-11-05T03:19:44.009Z,13.10
2022-11-05T03:22:41.643Z,11.70
2022-11-05T03:27:47.196Z,12.35
2022-11-05T03:30:16.960Z,13.85
2022-11-05T03:32:49.377Z,12.57
2022-11-05T03:35:23.933Z,11.57
2022-11-05T03:38:00.755Z,12.05
2022-11-05T03:40:33.804Z,12.32
2022-11-05T03:43:05.557Z,15.43
2022-11-05T03:45:39.894Z,12.35
2022-11-05T03:48:11.728Z,10.70
2022-11-05T03:50:45.875Z,10.75
2022-11-05T03:53:17.924Z,12.85
2022-11-05T03:55:52.467Z,12.70
2022-11-05T03:58:23.812Z,13.23
2022-11-05T04:00:55.614Z,10.07
2022-11-05T04:03:23.823Z,12.70
2022-11-05T04:06:35.879Z,12.05
2022-11-05T04:09:22.572Z,12.43
2022-11-05T04:12:07.800Z,12.73
2022-11-05T04:14:36.801Z,11.27
2022-11-05T04:17:09.886Z,12.68
2022-11-05T04:20:00.356Z,10.05
2022-11-05T04:22:49.295Z,11.57
2022-11-05T04:25:18.831Z,11.82
2022-11-05T04:27:51.954Z,10.85
2022-11-05T04:30:19.921Z,13.32
2022-11-05T04:32:58.855Z,12.75
2022-11-05T04:35:27.826Z,12.18
2022-11-05T04:37:56.831Z,11.85
2022-11-05T04:40:26.741Z,11.15
2022-11-05T04:42:56.024Z,10.23
2022-11-05T04:45:24.387Z,10.25
2022-11-05T04:47:52.253Z,10.75
2022-11-05T04:50:20.837Z,13.15
2022-11-05T04:52:49.353Z,12.68
2022-11-05T04:55:18.828Z,12.48
2022-11-05T04:57:49.377Z,13.48
2022-11-05T05:00:18.814Z,14.43
2022-11-05T05:02:47.058Z,13.77
2022-11-05T05:05:15.391Z,13.48
2022-11-05T05:07:43.342Z,13.00
2022-11-05T05:10:12.128Z,14.63
2022-11-05T05:12:42.748Z,17.73
2022-11-05T05:15:10.294Z,14.82
2022-11-05T05:17:37.898Z,14.60
2022-11-05T05:20:23.373Z,17.35
2022-11-05T05:22:54.808Z,15.35
2022-11-05T05:25:23.767Z,16.73
2022-11-05T05:27:53.936Z,15.30
2022-11-05T05:30:25.958Z,16.27
2022-11-05T05:32:56.794Z,17.42
2022-11-05T05:35:24.466Z,14.60
2022-11-05T05:37:56.610Z,17.15
2022-11-05T05:40:28.199Z,16.20
2022-11-05T05:42:57.170Z,17.63
2022-11-05T05:45:24.737Z,17.38
2022-11-05T05:47:55.820Z,21.63
2022-11-05T05:50:23.505Z,21.13
2022-11-05T05:52:52.929Z,18.60
2022-11-05T05:55:24.805Z,17.48
2022-11-05T06:00:23.686Z,16.13
2022-11-05T06:02:51.315Z,15.63
2022-11-05T06:05:18.880Z,16.42
2022-11-05T06:07:46.494Z,15.55
2022-11-05T06:13:05.824Z,14.77
2022-11-05T06:15:36.207Z,16.73
2022-11-05T06:18:05.306Z,14.90
2022-11-05T06:20:33.737Z,15.20
2022-11-05T06:23:01.271Z,16.27
2022-11-05T06:25:30.873Z,15.20
2022-11-05T06:27:58.899Z,14.85
2022-11-05T06:30:26.758Z,13.75
2022-11-05T06:32:55.642Z,14.38
2022-11-05T06:35:28.764Z,12.77
2022-11-05T06:38:22.072Z,13.23
2022-11-05T06:40:49.686Z,13.93
2022-11-05T06:43:17.262Z,12.35
2022-11-05T06:45:45.130Z,12.35
2022-11-05T06:48:15.551Z,13.63
2022-11-05T06:50:45.959Z,12.65
2022-11-05T06:53:14.187Z,13.73
2022-11-05T06:55:41.784Z,12.43
2022-11-05T06:58:09.376Z,13.77
2022-11-05T07:00:37.892Z,13.00
2022-11-05T07:03:06.528Z,12.65
2022-11-05T07:05:38.119Z,15.45
2022-11-05T07:08:07.748Z,11.88
2022-11-05T07:10:35.464Z,12.00
2022-11-05T07:13:08.055Z,13.73
2022-11-05T07:15:36.789Z,14.52
2022-11-05T07:18:07.074Z,13.95
2022-11-05T07:20:37.627Z,13.65
2022-11-05T07:23:09.335Z,13.52
2022-11-05T07:25:37.735Z,13.50
2022-11-05T07:28:06.922Z,15.43
2022-11-05T07:30:36.069Z,14.52
2022-11-05T07:33:06.409Z,16.98
2022-11-05T07:35:34.037Z,15.02
2022-11-05T07:38:02.996Z,13.88
2022-11-05T07:40:31.088Z,15.07
2022-11-05T07:43:00.403Z,13.55
2022-11-05T07:45:30.037Z,14.85
2022-11-05T07:48:00.280Z,15.38
2022-11-05T07:50:33.737Z,17.13
2022-11-05T07:53:06.759Z,19.50
2022-11-05T07:55:35.390Z,20.63
2022-11-05T07:58:03.384Z,19.13
2022-11-05T08:00:32.042Z,22.00
2022-11-05T08:03:09.355Z,26.58
2022-11-05T08:05:41.786Z,23.52
2022-11-05T08:10:41.848Z,23.65
2022-11-05T08:13:10.851Z,24.42
2022-11-05T08:15:39.395Z,23.63
2022-11-05T08:18:08.971Z,22.70
2022-11-05T08:20:37.030Z,19.40
2022-11-05T08:23:04.820Z,17.95
2022-11-05T08:25:37.891Z,16.40
2022-11-05T08:30:36.414Z,19.05
2022-11-05T08:33:06.914Z,18.25
2022-11-05T08:35:35.799Z,16.10
2022-11-05T08:38:05.859Z,19.08
2022-11-05T08:40:36.260Z,19.95
2022-11-05T08:43:29.168Z,20.52
2022-11-05T08:45:57.757Z,19.48
2022-11-05T08:48:26.256Z,18.10
2022-11-05T08:50:56.785Z,17.08
2022-11-05T08:53:25.136Z,20.90
2022-11-05T08:55:58.240Z,20.85
2022-11-05T08:58:25.859Z,17.77
2022-11-05T09:00:53.817Z,19.63
2022-11-05T09:03:21.709Z,18.88
2022-11-05T09:05:49.282Z,19.48
2022-11-05T09:08:20.769Z,17.88
2022-11-05T09:10:50.140Z,20.10
2022-11-05T09:13:20.388Z,20.27
2022-11-05T09:15:48.962Z,18.42
2022-11-05T09:18:18.612Z,18.02
2022-11-05T09:20:47.044Z,20.85
2022-11-05T09:23:15.673Z,17.33
2022-11-05T09:25:45.609Z,19.83
2022-11-05T09:28:17.018Z,20.80
2022-11-05T09:30:47.953Z,22.80
2022-11-05T09:33:17.825Z,23.92
2022-11-05T09:35:45.576Z,20.25
2022-11-05T09:38:13.624Z,20.15
2022-11-05T09:40:45.974Z,17.75
2022-11-05T09:43:19.675Z,18.27
2022-11-05T09:45:53.379Z,18.95
2022-11-05T09:48:25.451Z,18.88
2022-11-05T09:50:54.597Z,18.63
2022-11-05T09:53:24.319Z,18.08
2022-11-05T09:58:52.759Z,18.27
2022-11-05T10:01:26.954Z,18.30
2022-11-05T10:03:58.315Z,18.27
2022-11-05T10:06:29.920Z,17.48
2022-11-05T10:09:03.757Z,18.67
2022-11-05T10:11:38.315Z,22.25
2022-11-05T10:14:17.351Z,16.50
2022-11-05T10:16:52.548Z,16.45
2022-11-05T10:19:24.888Z,15.05
2022-11-05T10:22:11.229Z,16.52
2022-11-05T10:24:41.844Z,16.13
2022-11-05T10:27:15.488Z,16.48
2022-11-05T10:29:46.233Z,14.50
2022-11-05T10:32:22.435Z,13.82
2022-11-05T10:34:51.333Z,13.07
2022-11-05T10:37:20.758Z,16.13
2022-11-05T10:39:49.571Z,16.98
2022-11-05T10:42:34.913Z,17.30
2022-11-05T10:45:14.564Z,15.15
2022-11-05T10:47:59.190Z,16.00
2022-11-05T10:50:29.355Z,13.68
2022-11-05T10:53:00.020Z,14.55
2022-11-05T10:55:30.863Z,16.58
2022-11-05T10:58:09.976Z,12.23
2022-11-05T11:00:38.653Z,13.27
2022-11-05T11:03:39.994Z,13.93
2022-11-05T11:06:20.915Z,12.60
2022-11-05T11:08:51.225Z,14.82
2022-11-05T11:11:31.390Z,14.00
2022-11-05T11:14:08.865Z,13.00
2022-11-05T11:16:38.837Z,11.43
2022-11-05T11:19:27.856Z,13.73
2022-11-05T11:22:17.663Z,13.57
2022-11-05T11:24:48.001Z,10.82
2022-11-05T11:27:23.094Z,11.95
2022-11-05T11:29:56.961Z,12.95
2022-11-05T11:32:32.844Z,11.70
2022-11-05T11:35:02.312Z,13.13
2022-11-05T11:37:34.847Z,11.02
2022-11-05T11:42:41.767Z,11.80
2022-11-05T11:45:42.474Z,9.98
2022-11-05T11:48:17.791Z,9.23
2022-11-05T11:50:49.486Z,14.95
2022-11-05T11:53:26.805Z,9.93
2022-11-05T11:56:07.067Z,10.05
2022-11-05T11:58:41.634Z,10.88
2022-11-05T12:01:38.430Z,11.60
2022-11-05T12:04:21.047Z,11.63
2022-11-05T12:06:59.122Z,11.68
2022-11-05T12:09:41.853Z,9.45
2022-11-05T12:12:13.757Z,7.07
2022-11-05T12:14:50.781Z,9.97
2022-11-05T12:17:36.469Z,11.40
2022-11-05T12:20:17.790Z,10.85
2022-11-05T12:23:08.474Z,8.20
2022-11-05T12:25:46.432Z,7.50
2022-11-05T12:28:30.386Z,8.30
2022-11-05T12:31:08.307Z,9.30
2022-11-05T12:33:46.826Z,7.63
2022-11-05T12:36:30.794Z,7.93
2022-11-05T12:39:37.378Z,8.68
2022-11-05T12:42:12.213Z,7.07
2022-11-05T12:45:06.810Z,7.25
2022-11-05T12:47:49.830Z,5.95
2022-11-05T12:50:25.771Z,5.93
2022-11-05T12:53:20.101Z,9.88
2022-11-05T12:55:51.389Z,5.40
2022-11-05T12:58:24.482Z,7.53
2022-11-05T13:00:56.718Z,5.25
2022-11-05T13:03:37.862Z,7.10
2022-11-05T13:06:11.165Z,5.30
2022-11-05T13:08:44.599Z,5.70
2022-11-05T13:11:24.579Z,6.18
2022-11-05T13:14:05.091Z,6.13
2022-11-05T13:16:37.784Z,6.38
2022-11-05T13:19:16.354Z,7.68
2022-11-05T13:21:46.449Z,5.68
2022-11-05T13:24:19.388Z,6.43
2022-11-05T13:26:53.744Z,6.55
2022-11-05T13:29:26.348Z,7.07
2022-11-05T13:31:59.920Z,5.30
2022-11-05T13:34:55.979Z,8.55
2022-11-05T13:37:47.447Z,5.57
2022-11-05T13:40:19.826Z,8.65
2022-11-05T13:43:04.795Z,7.07
2022-11-05T13:45:50.063Z,7.22
2022-11-05T13:48:45.328Z,5.60
2022-11-05T13:51:31.495Z,5.43
2022-11-05T13:54:28.856Z,7.85
2022-11-05T13:57:12.075Z,6.82
2022-11-05T14:00:00.081Z,5.03
2022-11-05T14:02:32.497Z,6.75
2022-11-05T14:05:02.306Z,7.00
2022-11-05T14:07:31.978Z,6.57
2022-11-05T14:10:02.644Z,5.05
2022-11-05T14:12:35.831Z,8.52
2022-11-05T14:15:10.242Z,7.68
2022-11-05T14:17:56.389Z,7.82
2022-11-05T14:20:40.110Z,7.28
2022-11-05T14:23:47.998Z,7.07
2022-11-05T14:26:22.782Z,7.28
2022-11-05T14:28:52.789Z,6.07
2022-11-05T14:32:02.340Z,7.43
2022-11-05T14:34:42.798Z,5.75
2022-11-05T14:37:29.796Z,7.70
2022-11-05T14:40:01.315Z,7.35
2022-11-05T14:45:05.500Z,6.90
2022-11-05T14:47:36.848Z,8.13
2022-11-05T14:50:11.494Z,10.25
2022-11-05T14:52:41.832Z,7.20
2022-11-05T14:55:26.802Z,6.07
2022-11-05T14:58:07.835Z,7.38
2022-11-05T15:00:46.415Z,8.95
2022-11-05T15:03:34.117Z,10.63
2022-11-05T15:06:20.954Z,7.38
2022-11-05T15:09:25.169Z,7.00
2022-11-05T15:12:02.726Z,6.85
2022-11-05T15:14:34.783Z,7.63
2022-11-05T15:17:13.821Z,6.63
2022-11-05T15:19:44.154Z,7.30
2022-11-05T15:22:25.836Z,7.57
2022-11-05T15:24:53.660Z,8.13
2022-11-05T15:27:40.967Z,5.72
2022-11-05T15:30:16.430Z,6.95
2022-11-05T15:32:44.096Z,8.55
2022-11-05T15:35:26.894Z,6.82
2022-11-05T15:38:02.180Z,8.82
2022-11-05T15:40:32.697Z,6.75
2022-11-05T15:43:16.304Z,8.27
2022-11-05T15:45:44.076Z,7.30
2022-11-05T15:48:16.204Z,7.78
2022-11-05T15:50:45.405Z,6.57
2022-11-05T15:53:44.209Z,5.53
2022-11-05T15:56:11.774Z,6.60
2022-11-05T15:58:49.824Z,6.85
2022-11-05T16:01:22.150Z,7.88
2022-11-05T16:03:50.879Z,5.97
2022-11-05T16:06:21.077Z,7.32
2022-11-05T16:08:50.418Z,6.55
2022-11-05T16:11:22.604Z,6.53
2022-11-05T16:13:51.660Z,6.78
2022-11-05T16:16:34.904Z,7.05
2022-11-05T16:19:02.600Z,6.80
2022-11-05T16:21:31.478Z,7.07
2022-11-05T16:24:00.899Z,7.30
2022-11-05T16:27:02.254Z,7.13
2022-11-05T16:29:27.805Z,8.23
2022-11-05T16:31:57.516Z,7.35
2022-11-05T16:34:28.317Z,8.43
2022-11-05T16:36:59.952Z,8.23
2022-11-05T16:39:28.808Z,7.28
2022-11-05T16:41:57.285Z,7.00
2022-11-05T16:44:25.348Z,6.63
2022-11-05T16:46:53.752Z,8.40
2022-11-05T16:49:24.305Z,7.95
2022-11-05T16:51:51.901Z,7.63
2022-11-05T16:54:20.874Z,7.00
2022-11-05T16:56:48.474Z,7.65
2022-11-05T16:59:16.134Z,7.22
2022-11-05T17:01:44.929Z,8.55
2022-11-05T17:04:14.146Z,8.82
2022-11-05T17:06:43.831Z,7.30
2022-11-05T17:09:11.419Z,6.40
2022-11-05T17:11:41.063Z,6.65
2022-11-05T17:14:10.491Z,6.25
2022-11-05T17:16:38.561Z,7.38
2022-11-05T17:19:08.111Z,7.18
2022-11-05T17:21:36.567Z,7.55
2022-11-05T17:24:04.313Z,7.63
2022-11-05T17:26:31.905Z,6.68
2022-11-05T17:29:01.117Z,8.00
2022-11-05T17:31:28.766Z,7.35
2022-11-05T17:33:58.754Z,7.43
2022-11-05T17:36:28.807Z,7.63
2022-11-05T17:38:56.882Z,6.60
2022-11-05T17:41:25.018Z,8.32
2022-11-05T17:43:55.204Z,8.38
2022-11-05T17:46:25.712Z,7.05
2022-11-05T17:48:54.193Z,7.95
2022-11-05T17:51:22.457Z,6.18
2022-11-05T17:53:50.777Z,8.43
2022-11-05T17:56:32.594Z,7.47
2022-11-05T17:59:02.901Z,7.07
2022-11-05T18:01:35.508Z,7.97
2022-11-05T18:04:08.637Z,6.90
2022-11-05T18:06:36.890Z,7.93
2022-11-05T18:09:05.027Z,8.43
2022-11-05T18:11:32.548Z,7.93
2022-11-05T18:14:00.838Z,7.13
2022-11-05T18:16:28.806Z,9.02
2022-11-05T18:18:57.911Z,8.65
2022-11-05T18:21:25.522Z,7.68
2022-11-05T18:23:53.288Z,6.63
2022-11-05T18:26:22.340Z,7.68
2022-11-05T18:28:49.925Z,9.20
2022-11-05T18:31:20.425Z,6.90
2022-11-05T18:33:48.915Z,7.97
2022-11-05T18:36:20.050Z,7.90
2022-11-05T18:38:48.790Z,8.43
2022-11-05T18:41:17.441Z,8.00
2022-11-05T18:43:45.296Z,7.95
2022-11-05T18:46:35.752Z,7.93
2022-11-05T18:49:00.883Z,7.35
2022-11-05T18:51:29.833Z,6.88
2022-11-05T18:53:57.491Z,7.88
2022-11-05T18:56:25.961Z,9.27
2022-11-05T18:59:14.672Z,7.63
2022-11-05T19:01:42.439Z,10.85
2022-11-05T19:04:10.733Z,8.35
2022-11-05T19:06:40.472Z,7.35
2022-11-05T19:09:09.909Z,9.70
2022-11-05T19:11:37.540Z,6.53
2022-11-05T19:14:05.061Z,6.68
2022-11-05T19:16:33.673Z,6.97
2022-11-05T19:19:02.697Z,5.78
2022-11-05T19:21:31.316Z,7.70
2022-11-05T19:24:03.724Z,5.57
2022-11-05T19:26:35.862Z,6.72
2022-11-05T19:29:04.711Z,6.45
2022-11-05T19:31:32.843Z,6.32
2022-11-05T19:34:01.276Z,7.60
2022-11-05T19:36:28.880Z,5.80
2022-11-05T19:39:01.817Z,7.28
2022-11-05T19:41:31.115Z,6.75
2022-11-05T19:43:59.481Z,5.78
2022-11-05T19:46:28.343Z,7.30
2022-11-05T19:48:55.888Z,8.73
2022-11-05T19:51:25.260Z,5.80
2022-11-05T19:53:54.821Z,8.65
2022-11-05T19:56:24.481Z,6.45
2022-11-05T19:58:54.408Z,6.63
2022-11-05T20:01:24.118Z,5.63
2022-11-05T20:03:53.255Z,7.18
2022-11-05T20:06:22.434Z,7.97
2022-11-05T20:09:19.925Z,6.80
2022-11-05T20:11:39.789Z,5.40
2022-11-05T20:14:10.836Z,6.32
2022-11-05T20:19:10.960Z,6.22
2022-11-05T20:21:39.938Z,5.82
2022-11-05T20:24:08.180Z,5.65
2022-11-05T20:26:36.896Z,7.28
2022-11-05T20:29:05.417Z,5.43
2022-11-05T20:31:34.739Z,6.35
2022-11-05T20:34:02.338Z,6.32
2022-11-05T20:36:29.968Z,5.70
2022-11-05T20:38:59.340Z,5.93
2022-11-05T20:41:27.261Z,7.93
2022-11-05T20:43:55.819Z,7.32
2022-11-05T20:46:23.958Z,6.25
2022-11-05T20:48:54.232Z,7.53
2022-11-05T20:51:24.344Z,7.47
2022-11-05T20:53:55.573Z,6.90
2022-11-05T20:56:25.129Z,7.95
2022-11-05T20:58:55.434Z,5.93
2022-11-05T21:01:23.434Z,7.47
2022-11-05T21:03:51.278Z,7.47
2022-11-05T21:06:20.898Z,6.70
2022-11-05T21:08:49.293Z,6.53
2022-11-05T21:11:17.819Z,6.57
2022-11-05T21:13:45.615Z,5.93
2022-11-05T21:16:18.012Z,7.07
2022-11-05T21:18:47.359Z,8.13
2022-11-05T21:21:17.251Z,6.20
2022-11-05T21:23:46.549Z,5.80
2022-11-05T21:26:16.682Z,5.55
2022-11-05T21:28:44.392Z,5.82
2022-11-05T21:31:12.117Z,6.05
2022-11-05T21:33:40.818Z,7.82
2022-11-05T21:36:10.367Z,6.15
2022-11-05T21:38:38.549Z,9.85
2022-11-05T21:41:08.466Z,9.23
2022-11-05T21:43:36.375Z,7.80
2022-11-05T21:46:05.375Z,8.00
2022-11-05T21:48:33.849Z,7.40
2022-11-05T21:51:19.129Z,6.35
2022-11-05T21:54:04.372Z,7.10
2022-11-05T21:56:52.819Z,8.38
2022-11-05T21:59:40.445Z,6.60
2022-11-05T22:02:11.040Z,8.05
2022-11-05T22:04:42.113Z,6.72
2022-11-05T22:07:12.149Z,8.95
2022-11-05T22:09:40.879Z,7.50
2022-11-05T22:12:11.171Z,8.55
2022-11-05T22:14:39.862Z,7.50
2022-11-05T22:17:08.230Z,7.18
2022-11-05T22:19:36.409Z,9.00
2022-11-05T22:22:05.805Z,7.88
2022-11-05T22:24:34.812Z,8.05
2022-11-05T22:27:05.032Z,7.45
2022-11-05T22:29:34.178Z,7.85
2022-11-05T22:32:01.810Z,8.73
2022-11-05T22:34:30.190Z,8.85
2022-11-05T22:36:58.747Z,7.47
2022-11-05T22:39:26.357Z,7.55
2022-11-05T22:41:55.593Z,6.45
2022-11-05T22:44:23.842Z,7.85
2022-11-05T22:46:53.784Z,7.95
2022-11-05T22:49:21.626Z,6.97
2022-11-05T22:51:49.256Z,7.30
2022-11-05T22:54:17.426Z,8.00
2022-11-05T22:56:45.033Z,7.43
2022-11-05T22:59:15.804Z,7.43
2022-11-05T23:01:45.223Z,6.80
2022-11-05T23:04:14.930Z,6.15
2022-11-05T23:07:00.780Z,7.80
2022-11-05T23:09:48.960Z,7.75
2022-11-05T23:12:22.952Z,7.18
2022-11-05T23:14:52.891Z,9.32
2022-11-05T23:17:38.350Z,6.72
2022-11-05T23:20:29.804Z,7.30
2022-11-05T23:23:16.434Z,7.72
2022-11-05T23:25:44.578Z,8.65
2022-11-05T23:28:37.749Z,7.13
2022-11-05T23:31:27.588Z,7.45
2022-11-05T23:33:55.157Z,8.65
2022-11-05T23:36:41.724Z,8.45
2022-11-05T23:39:09.315Z,7.72
2022-11-05T23:41:54.288Z,7.07
2022-11-05T23:44:39.666Z,7.53
2022-11-05T23:47:25.925Z,7.05
2022-11-05T23:49:54.823Z,7.97
2022-11-05T23:52:23.659Z,9.90
2022-11-05T23:54:51.791Z,6.53
2022-11-05T23:57:19.355Z,7.75
2022-11-05T23:59:46.928Z,8.50
